Amapa, Brazil
Current Conditions -  °F | °C
As of 11:00 AM on Thursday 27 Nov 2014 (Local Time) from SBMQ Reporting Station
Scattered Clouds Scattered Clouds  
Wind Chill: 91°   Ceiling: Unl
Heat Index: 100°   Visibility: 6mi
Dew Point: 73°   Wind: 16mph
Humidity: 55%   Direction: 60°ENE
Pressure: 29.88"   Gusts: NA
Location:  2.02°N, 50.78°W
Report Text: SBMQ 271400Z 06014KT 9999 SCT023 33/23 Q1012
Loading
Personal Weather Stations






























Interactive Weather Map New forecast layout! Learn more

10-Day Weather Forecast

Advertisements
Track Severe Weather on mobile